Terminal Aerodrome Forecast
Issued by NWS

Home | Current Version | Previous Version | Text Only | Print | Product List | Glossary On
Versions: 1 2 3 4 5 6 7 8 9 10 11 12 13 14 15 16
000
FTUS43 KPAH 201740
TAFCGI
TAF
KCGI 201740Z 2018/2118 21012KT P6SM SCT200
     FM202000 22012KT P6SM VCTS SCT060CB BKN200
     FM202300 21006KT P6SM BKN120
     FM210600 28004KT P6SM BKN045
     FM210900 35005KT P6SM BKN030
     FM211500 02008KT P6SM BKN035=

USA.gov is the U.S. government's official web portal to all federal, state and local government web resources and services.